Terminal Aerodrome Forecast
Issued by NWS Brownsville, TX

Home | Current Version | Previous Version | Text Only | Print | Product List | Glossary On
Versions: 1 2 3 4 5 6 7 8 9 10 11 12 13 14 15 16 17 18 19 20 21 22 23 24 25 26
000
FTUS44 KBRO 171800 AAA
TAFBRO
TAF AMD
KBRO 171837Z 1719/1818 14006KT P6SM SCT023 OVC035
     FM180000 08009KT P6SM OVC019
     FM180200 07006KT P6SM OVC009
     FM180500 06004KT 6SM BR OVC004=

USA.gov is the U.S. government's official web portal to all federal, state and local government web resources and services.